createdAt,value
2023-12-12T00:02:12.584Z,56.07
2023-12-12T00:04:41.139Z,76.73
2023-12-12T00:07:09.760Z,70.43
2023-12-12T00:09:40.212Z,75.07
2023-12-12T00:12:10.683Z,89.80
2023-12-12T00:14:39.285Z,72.63
2023-12-12T00:17:10.534Z,49.50
2023-12-12T00:19:43.999Z,50.13
2023-12-12T00:22:12.696Z,43.00
2023-12-12T00:24:41.176Z,42.87
2023-12-12T00:27:11.113Z,49.57
2023-12-12T00:29:42.078Z,53.33
2023-12-12T00:32:10.630Z,44.93
2023-12-12T00:34:40.609Z,58.60
2023-12-12T00:37:09.169Z,52.10
2023-12-12T00:39:39.430Z,47.57
2023-12-12T00:42:08.074Z,41.13
2023-12-12T00:44:38.084Z,41.33
2023-12-12T00:47:07.005Z,111.50
2023-12-12T00:49:35.703Z,75.83
2023-12-12T00:52:04.790Z,51.57
2023-12-12T00:54:33.342Z,54.93
2023-12-12T00:57:01.805Z,65.93
2023-12-12T00:59:30.478Z,65.53
2023-12-12T01:02:00.608Z,52.57
2023-12-12T01:04:29.178Z,67.47
2023-12-12T01:06:57.799Z,48.00
2023-12-12T01:09:26.327Z,53.90
2023-12-12T01:11:54.744Z,39.07
2023-12-12T01:14:23.198Z,43.97
2023-12-12T01:16:51.656Z,51.27
2023-12-12T01:19:21.740Z,41.70
2023-12-12T01:21:50.209Z,41.60
2023-12-12T01:24:18.664Z,45.43
2023-12-12T01:26:47.134Z,72.30
2023-12-12T01:29:17.562Z,45.50
2023-12-12T01:31:46.027Z,48.60
2023-12-12T01:34:15.470Z,64.47
2023-12-12T01:36:45.817Z,47.00
2023-12-12T01:39:14.356Z,55.53
2023-12-12T01:41:42.884Z,65.83
2023-12-12T01:44:11.609Z,77.13
2023-12-12T01:46:40.592Z,52.00
2023-12-12T01:49:10.250Z,47.57
2023-12-12T01:51:39.057Z,48.27
2023-12-12T01:54:10.798Z,40.37
2023-12-12T01:56:40.206Z,41.70
2023-12-12T01:59:09.253Z,41.53
2023-12-12T02:01:38.091Z,39.43
2023-12-12T02:04:08.376Z,38.97
2023-12-12T02:06:37.721Z,37.37
2023-12-12T02:09:06.735Z,35.20
2023-12-12T02:11:36.640Z,37.30
2023-12-12T02:14:05.136Z,32.47
2023-12-12T02:16:33.814Z,39.10
2023-12-12T02:19:02.497Z,34.10
2023-12-12T02:21:32.446Z,34.23
2023-12-12T02:24:00.872Z,30.10
2023-12-12T02:26:29.217Z,30.87
2023-12-12T02:28:58.244Z,34.03
2023-12-12T02:31:26.731Z,31.07
2023-12-12T02:33:55.390Z,31.37
2023-12-12T02:36:23.870Z,31.83
2023-12-12T02:38:53.754Z,32.73
2023-12-12T02:41:22.181Z,29.43
2023-12-12T02:43:50.624Z,29.23
2023-12-12T02:46:19.042Z,35.13
2023-12-12T02:48:47.567Z,28.77
2023-12-12T02:51:16.023Z,31.07
2023-12-12T02:53:45.049Z,31.53
2023-12-12T02:56:14.879Z,29.83
2023-12-12T02:58:43.372Z,35.40
2023-12-12T03:01:14.254Z,34.70
2023-12-12T03:03:42.937Z,37.70
2023-12-12T03:06:11.472Z,37.47
2023-12-12T03:08:39.917Z,28.77
2023-12-12T03:11:08.670Z,31.67
2023-12-12T03:13:38.432Z,52.13
2023-12-12T03:16:07.414Z,98.87
2023-12-12T03:18:35.962Z,31.83
2023-12-12T03:21:04.457Z,36.10
2023-12-12T03:23:32.884Z,37.40
2023-12-12T03:26:09.199Z,34.03
2023-12-12T03:28:39.832Z,46.83
2023-12-12T03:31:09.418Z,34.67
2023-12-12T03:33:38.332Z,33.23
2023-12-12T03:36:10.332Z,34.33
2023-12-12T03:38:41.086Z,29.97
2023-12-12T03:41:09.680Z,31.63
2023-12-12T03:43:39.411Z,34.33
2023-12-12T03:46:08.258Z,31.17
2023-12-12T03:48:36.807Z,30.23
2023-12-12T03:51:05.738Z,31.43
2023-12-12T03:53:34.202Z,32.83
2023-12-12T03:56:02.674Z,26.17
2023-12-12T03:58:31.390Z,26.57
2023-12-12T04:01:01.322Z,25.57
2023-12-12T04:03:29.941Z,21.83
2023-12-12T04:05:58.611Z,21.77
2023-12-12T04:08:27.139Z,17.93
2023-12-12T04:10:55.577Z,16.17
2023-12-12T04:13:24.625Z,18.27
2023-12-12T04:15:53.052Z,11.73
2023-12-12T04:18:23.033Z,11.10
2023-12-12T04:20:51.534Z,12.53
2023-12-12T04:23:19.912Z,12.67
2023-12-12T04:25:48.532Z,21.93
2023-12-12T04:28:17.077Z,22.83
2023-12-12T04:30:45.540Z,29.20
2023-12-12T04:33:14.033Z,32.97
2023-12-12T04:35:44.076Z,32.53
2023-12-12T04:38:12.504Z,38.70
2023-12-12T04:40:41.271Z,35.27
2023-12-12T04:43:09.842Z,41.43
2023-12-12T04:45:38.386Z,37.63
2023-12-12T04:48:07.416Z,35.70
2023-12-12T04:50:35.972Z,41.47
2023-12-12T04:53:05.830Z,33.23
2023-12-12T04:55:34.367Z,32.43
2023-12-12T04:58:03.386Z,29.73
2023-12-12T05:00:31.818Z,27.93
2023-12-12T05:03:00.322Z,18.60
2023-12-12T05:05:28.933Z,13.77
2023-12-12T05:07:57.652Z,10.60
2023-12-12T05:10:27.632Z,13.13
2023-12-12T05:12:56.084Z,6.60
2023-12-12T05:15:24.591Z,10.53
2023-12-12T05:17:53.137Z,5.67
2023-12-12T05:20:21.878Z,5.87
2023-12-12T05:22:50.329Z,6.37
2023-12-12T05:25:20.317Z,3.53
2023-12-12T05:27:51.133Z,7.00
2023-12-12T05:30:19.657Z,7.20
2023-12-12T05:32:48.247Z,8.50
2023-12-12T05:35:16.801Z,5.07
2023-12-12T05:37:45.353Z,6.27
2023-12-12T05:40:16.094Z,5.50
2023-12-12T05:42:44.813Z,18.03
2023-12-12T05:45:14.678Z,5.90
2023-12-12T05:47:43.854Z,8.10
2023-12-12T05:50:13.205Z,7.47
2023-12-12T05:52:41.676Z,5.17
2023-12-12T05:55:10.699Z,5.60
2023-12-12T05:57:40.227Z,6.87
2023-12-12T06:00:09.874Z,7.83
2023-12-12T06:02:39.746Z,4.87
2023-12-12T06:05:09.312Z,7.37
2023-12-12T06:07:38.866Z,5.43
2023-12-12T06:10:09.720Z,5.87
2023-12-12T06:12:38.251Z,4.83
2023-12-12T06:15:09.054Z,7.37
2023-12-12T06:17:39.702Z,6.17
2023-12-12T06:20:10.148Z,7.23
2023-12-12T06:22:39.041Z,5.23
2023-12-12T06:25:10.134Z,6.60
2023-12-12T06:27:38.731Z,9.60
2023-12-12T06:30:08.738Z,8.00
2023-12-12T06:32:37.542Z,4.30
2023-12-12T06:35:08.713Z,3.43
2023-12-12T06:37:37.219Z,4.07
2023-12-12T06:40:06.681Z,4.70
2023-12-12T06:42:36.808Z,3.23
2023-12-12T06:45:06.508Z,3.27
2023-12-12T06:47:35.332Z,4.18
2023-12-12T06:50:04.409Z,4.85
2023-12-12T06:52:35.110Z,25.97
2023-12-12T06:55:04.903Z,25.38
2023-12-12T06:57:33.881Z,38.17
2023-12-12T07:00:02.662Z,41.85
2023-12-12T07:02:33.784Z,60.10
2023-12-12T07:05:02.999Z,48.57
2023-12-12T07:07:31.804Z,49.37
2023-12-12T07:10:03.912Z,38.77
2023-12-12T07:15:19.081Z,32.30
2023-12-12T07:17:47.745Z,53.00
2023-12-12T07:20:16.515Z,55.10
2023-12-12T07:22:45.268Z,53.87
2023-12-12T07:25:15.416Z,38.07
2023-12-12T07:27:43.953Z,39.58
2023-12-12T07:30:13.589Z,40.35
2023-12-12T07:32:42.300Z,33.15
2023-12-12T07:35:11.442Z,32.00
2023-12-12T07:37:40.214Z,37.03
2023-12-12T07:40:09.864Z,22.55
2023-12-12T07:42:39.971Z,21.58
2023-12-12T07:45:09.946Z,22.90
2023-12-12T07:47:43.561Z,30.80
2023-12-12T07:50:13.148Z,32.03
2023-12-12T07:52:41.982Z,23.25
2023-12-12T07:55:14.231Z,17.88
2023-12-12T07:57:44.174Z,25.40
2023-12-12T08:00:14.609Z,16.60
2023-12-12T08:02:43.000Z,19.35
2023-12-12T08:05:11.590Z,24.52
2023-12-12T08:07:40.037Z,26.10
2023-12-12T08:10:10.181Z,23.73
2023-12-12T08:12:38.727Z,31.17
2023-12-12T08:15:09.741Z,19.80
2023-12-12T08:17:38.317Z,34.33
2023-12-12T08:20:08.039Z,36.97
2023-12-12T08:22:39.009Z,34.00
2023-12-12T08:25:09.174Z,17.95
2023-12-12T08:27:38.504Z,25.33
2023-12-12T08:30:10.114Z,21.33
2023-12-12T08:32:39.714Z,22.80
2023-12-12T08:35:09.421Z,26.00
2023-12-12T08:37:39.692Z,17.08
2023-12-12T08:40:11.474Z,13.63
2023-12-12T08:42:41.219Z,12.68
2023-12-12T08:45:12.381Z,10.23
2023-12-12T08:47:40.936Z,17.52
2023-12-12T08:50:11.612Z,15.40
2023-12-12T08:52:40.372Z,11.45
2023-12-12T08:55:12.134Z,11.30
2023-12-12T08:57:40.780Z,11.98
2023-12-12T09:00:14.233Z,10.73
2023-12-12T09:02:42.796Z,8.00
2023-12-12T09:05:11.429Z,6.57
2023-12-12T09:07:40.102Z,7.07
2023-12-12T09:10:09.687Z,6.47
2023-12-12T09:12:38.183Z,10.82
2023-12-12T09:15:08.220Z,3.50
2023-12-12T09:17:38.558Z,10.05
2023-12-12T09:20:08.772Z,10.23
2023-12-12T09:22:37.508Z,21.65
2023-12-12T09:25:07.148Z,13.20
2023-12-12T09:27:35.872Z,18.52
2023-12-12T09:30:04.865Z,21.55
2023-12-12T09:32:34.542Z,16.63
2023-12-12T09:35:05.502Z,15.07
2023-12-12T09:37:34.152Z,16.10
2023-12-12T09:40:03.555Z,14.23
2023-12-12T09:42:35.619Z,21.55
2023-12-12T09:45:06.378Z,16.52
2023-12-12T09:47:35.806Z,33.65
2023-12-12T09:50:07.736Z,20.88
2023-12-12T09:52:38.142Z,16.65
2023-12-12T09:55:09.126Z,17.00
2023-12-12T09:57:37.610Z,14.38
2023-12-12T10:00:10.129Z,14.80
2023-12-12T10:02:40.214Z,16.35
2023-12-12T10:05:12.472Z,15.15
2023-12-12T10:07:42.801Z,18.08
2023-12-12T10:10:16.098Z,22.90
2023-12-12T10:12:44.640Z,20.83
2023-12-12T10:15:26.702Z,23.30
2023-12-12T10:17:59.776Z,28.70
2023-12-12T10:20:31.128Z,21.08
2023-12-12T10:23:01.204Z,24.75
2023-12-12T10:25:30.854Z,20.50
2023-12-12T10:27:59.900Z,19.60
2023-12-12T10:30:28.969Z,24.35
2023-12-12T10:32:58.054Z,21.48
2023-12-12T10:35:29.524Z,25.30
2023-12-12T10:38:07.592Z,18.55
2023-12-12T10:40:36.643Z,19.42
2023-12-12T10:43:08.154Z,10.45
2023-12-12T10:45:38.021Z,7.32
2023-12-12T10:48:09.182Z,5.68
2023-12-12T10:50:38.382Z,7.43
2023-12-12T10:53:09.491Z,6.13
2023-12-12T10:55:38.847Z,6.32
2023-12-12T10:58:08.996Z,4.07
2023-12-12T11:00:38.273Z,6.35
2023-12-12T11:03:08.720Z,3.00
2023-12-12T11:05:37.786Z,5.47
2023-12-12T11:08:09.162Z,4.80
2023-12-12T11:10:37.759Z,3.28
2023-12-12T11:13:07.776Z,4.88
2023-12-12T11:15:39.089Z,6.07
2023-12-12T11:18:10.418Z,5.35
2023-12-12T11:20:42.164Z,4.05
2023-12-12T11:23:12.392Z,3.85
2023-12-12T11:25:44.822Z,6.25
2023-12-12T11:28:13.638Z,4.45
2023-12-12T11:30:42.153Z,5.57
2023-12-12T11:33:12.052Z,5.88
2023-12-12T11:35:41.586Z,5.85
2023-12-12T11:38:29.961Z,6.32
2023-12-12T11:41:11.537Z,3.05
2023-12-12T11:43:42.570Z,3.38
2023-12-12T11:46:19.850Z,5.25
2023-12-12T11:48:48.633Z,5.60
2023-12-12T11:51:51.112Z,3.28
2023-12-12T11:54:25.271Z,5.72
2023-12-12T11:56:59.128Z,7.28
2023-12-12T11:59:28.769Z,4.90
2023-12-12T12:01:58.316Z,6.80
2023-12-12T12:04:27.544Z,5.07
2023-12-12T12:06:57.483Z,6.63
2023-12-12T12:09:27.445Z,5.82
2023-12-12T12:11:55.896Z,5.22
2023-12-12T12:14:25.769Z,5.20
2023-12-12T12:16:59.748Z,5.13
2023-12-12T12:19:33.281Z,5.20
2023-12-12T12:22:06.644Z,3.35
2023-12-12T12:24:43.842Z,4.85
2023-12-12T12:27:12.584Z,6.03
2023-12-12T12:29:41.302Z,3.47
2023-12-12T12:32:13.487Z,5.18
2023-12-12T12:34:42.512Z,3.85
2023-12-12T12:37:31.633Z,7.20
2023-12-12T12:40:01.468Z,3.28
2023-12-12T12:42:36.921Z,3.78
2023-12-12T12:45:07.126Z,5.78
2023-12-12T12:47:36.595Z,8.10
2023-12-12T12:50:06.633Z,3.88
2023-12-12T12:52:35.676Z,7.70
2023-12-12T12:55:06.963Z,7.45
2023-12-12T12:57:35.518Z,6.07
2023-12-12T13:00:04.654Z,2.78
2023-12-12T13:02:33.405Z,8.07
2023-12-12T13:05:03.011Z,5.22
2023-12-12T13:07:34.260Z,8.70
2023-12-12T13:10:03.503Z,8.00
2023-12-12T13:12:33.759Z,7.20
2023-12-12T13:15:02.438Z,7.82
2023-12-12T13:17:30.966Z,5.95
2023-12-12T13:20:01.568Z,8.48
2023-12-12T13:22:30.359Z,7.00
2023-12-12T13:24:58.970Z,10.93
2023-12-12T13:27:27.442Z,8.60
2023-12-12T13:29:57.284Z,9.15
2023-12-12T13:32:25.958Z,11.43
2023-12-12T13:34:55.415Z,9.30
2023-12-12T13:37:23.896Z,8.18
2023-12-12T13:39:52.397Z,6.22
2023-12-12T13:42:20.817Z,7.18
2023-12-12T13:44:49.262Z,4.75
2023-12-12T13:47:19.032Z,6.47
2023-12-12T13:49:47.621Z,5.72
2023-12-12T13:52:16.138Z,5.78
2023-12-12T13:54:44.622Z,7.03
2023-12-12T13:57:15.159Z,7.95
2023-12-12T13:59:43.880Z,4.55
2023-12-12T14:02:26.262Z,5.85
2023-12-12T14:05:03.817Z,5.60
2023-12-12T14:07:32.998Z,6.38
2023-12-12T14:10:02.413Z,5.72
2023-12-12T14:12:31.400Z,5.95
2023-12-12T14:15:02.157Z,4.93
2023-12-12T14:17:30.833Z,10.45
2023-12-12T14:19:59.620Z,18.45
2023-12-12T14:22:29.664Z,10.73
2023-12-12T14:24:58.199Z,9.27
2023-12-12T14:27:26.840Z,6.53
2023-12-12T14:29:55.376Z,5.78
2023-12-12T14:32:23.937Z,4.43
2023-12-12T14:34:52.832Z,6.40
2023-12-12T14:37:21.383Z,5.40
2023-12-12T14:39:51.725Z,6.45
2023-12-12T14:42:20.703Z,5.93
2023-12-12T14:44:49.186Z,5.22
2023-12-12T14:47:17.734Z,5.32
2023-12-12T14:49:46.528Z,5.43
2023-12-12T14:52:15.189Z,9.48
2023-12-12T14:54:44.366Z,6.05
2023-12-12T14:57:20.167Z,4.30
2023-12-12T14:59:50.493Z,16.02
2023-12-12T15:02:18.947Z,23.65
2023-12-12T15:04:47.581Z,17.75
2023-12-12T15:07:16.347Z,17.65
2023-12-12T15:09:44.934Z,21.38
2023-12-12T15:12:14.888Z,11.38
2023-12-12T15:14:43.540Z,8.32
2023-12-12T15:17:12.287Z,11.10
2023-12-12T15:19:40.810Z,9.65
2023-12-12T15:22:09.400Z,12.15
2023-12-12T15:24:38.079Z,8.88
2023-12-12T15:27:06.967Z,8.63
2023-12-12T15:29:36.854Z,7.20
2023-12-12T15:32:05.998Z,7.57
2023-12-12T15:34:34.814Z,9.85
2023-12-12T15:37:03.786Z,9.60
2023-12-12T15:39:33.735Z,5.95
2023-12-12T15:42:02.864Z,5.90
2023-12-12T15:44:31.370Z,3.83
2023-12-12T15:47:01.281Z,6.22
2023-12-12T15:49:33.305Z,5.32
2023-12-12T15:52:03.936Z,6.65
2023-12-12T15:54:32.649Z,5.10
2023-12-12T15:57:01.171Z,8.25
2023-12-12T15:59:31.821Z,6.65
2023-12-12T16:02:03.284Z,12.05
2023-12-12T16:04:32.051Z,22.83
2023-12-12T16:07:00.571Z,16.17
2023-12-12T16:09:29.110Z,16.77
2023-12-12T16:11:57.623Z,17.77
2023-12-12T16:14:26.645Z,14.75
2023-12-12T16:16:55.811Z,15.93
2023-12-12T16:19:27.996Z,8.88
2023-12-12T16:21:56.594Z,11.20
2023-12-12T16:24:25.037Z,8.45
2023-12-12T16:26:53.853Z,8.32
2023-12-12T16:29:23.826Z,5.75
2023-12-12T16:31:52.420Z,7.45
2023-12-12T16:34:21.244Z,9.65
2023-12-12T16:36:57.482Z,9.68
2023-12-12T16:39:32.556Z,11.30
2023-12-12T16:42:00.978Z,10.50
2023-12-12T16:44:29.429Z,6.63
2023-12-12T16:46:57.947Z,11.57
2023-12-12T16:49:26.692Z,8.77
2023-12-12T16:51:56.588Z,11.88
2023-12-12T16:54:25.011Z,7.90
2023-12-12T16:56:54.960Z,8.63
2023-12-12T16:59:23.410Z,9.85
2023-12-12T17:01:54.203Z,12.43
2023-12-12T17:04:23.211Z,12.32
2023-12-12T17:06:51.721Z,10.70
2023-12-12T17:09:21.641Z,9.18
2023-12-12T17:11:50.469Z,9.80
2023-12-12T17:14:18.991Z,10.50
2023-12-12T17:16:48.277Z,8.10
2023-12-12T17:19:16.882Z,7.32
2023-12-12T17:21:45.359Z,10.77
2023-12-12T17:24:13.911Z,9.98
2023-12-12T17:26:43.853Z,8.95
2023-12-12T17:29:12.480Z,11.50
2023-12-12T17:31:41.895Z,7.43
2023-12-12T17:34:10.534Z,8.50
2023-12-12T17:36:39.038Z,7.18
2023-12-12T17:39:06.561Z,7.55
2023-12-12T17:41:35.228Z,10.32
2023-12-12T17:44:05.317Z,8.18
2023-12-12T17:46:33.970Z,8.95
2023-12-12T17:49:05.139Z,9.93
2023-12-12T17:51:33.764Z,8.73
2023-12-12T17:54:03.385Z,11.57
2023-12-12T17:56:32.143Z,8.55
2023-12-12T17:59:03.170Z,9.77
2023-12-12T18:01:37.019Z,9.10
2023-12-12T18:04:06.260Z,10.68
2023-12-12T18:06:35.056Z,24.10
2023-12-12T18:09:04.807Z,11.73
2023-12-12T18:11:33.867Z,11.43
2023-12-12T18:14:04.144Z,10.18
2023-12-12T18:16:32.810Z,11.75
2023-12-12T18:19:03.854Z,13.60
2023-12-12T18:21:32.536Z,13.68
2023-12-12T18:24:01.252Z,9.57
2023-12-12T18:26:30.718Z,14.50
2023-12-12T18:29:01.673Z,12.45
2023-12-12T18:31:31.821Z,12.93
2023-12-12T18:34:00.951Z,12.68
2023-12-12T18:36:31.284Z,11.77
2023-12-12T18:39:00.650Z,14.30
2023-12-12T18:41:29.126Z,10.93
2023-12-12T18:43:57.663Z,11.80
2023-12-12T18:46:26.134Z,13.20
2023-12-12T18:48:54.834Z,12.38
2023-12-12T18:51:24.387Z,12.00
2023-12-12T18:53:54.531Z,12.05
2023-12-12T18:56:23.175Z,12.48
2023-12-12T18:58:52.487Z,13.77
2023-12-12T19:01:21.037Z,16.20
2023-12-12T19:03:49.759Z,13.52
2023-12-12T19:06:18.417Z,13.23
2023-12-12T19:08:46.942Z,17.38
2023-12-12T19:11:18.697Z,12.63
2023-12-12T19:13:47.480Z,12.88
2023-12-12T19:16:17.073Z,12.00
2023-12-12T19:18:45.947Z,16.70
2023-12-12T19:21:14.586Z,16.85
2023-12-12T19:23:43.135Z,19.38
2023-12-12T19:26:11.648Z,15.30
2023-12-12T19:28:42.274Z,14.65
2023-12-12T19:31:10.956Z,18.00
2023-12-12T19:33:39.593Z,14.95
2023-12-12T19:36:09.561Z,16.83
2023-12-12T19:38:37.049Z,18.63
2023-12-12T19:41:07.359Z,24.85
2023-12-12T19:43:36.079Z,22.00
2023-12-12T19:46:09.530Z,24.80
2023-12-12T19:48:38.707Z,21.63
2023-12-12T19:51:08.601Z,19.33
2023-12-12T19:53:37.177Z,22.17
2023-12-12T19:56:06.128Z,24.27
2023-12-12T19:58:34.592Z,20.75
2023-12-12T20:01:03.223Z,23.00
2023-12-12T20:03:33.308Z,22.42
2023-12-12T20:06:03.731Z,23.42
2023-12-12T20:08:32.873Z,25.55
2023-12-12T20:11:01.372Z,22.95
2023-12-12T20:13:30.136Z,24.65
2023-12-12T20:15:58.757Z,25.48
2023-12-12T20:18:27.375Z,36.50
2023-12-12T20:20:57.326Z,35.15
2023-12-12T20:23:25.882Z,25.80
2023-12-12T20:25:54.527Z,24.58
2023-12-12T20:28:23.485Z,31.17
2023-12-12T20:30:52.520Z,22.42
2023-12-12T20:33:21.211Z,25.27
2023-12-12T20:35:50.237Z,21.00
2023-12-12T20:38:20.233Z,21.63
2023-12-12T20:40:49.019Z,20.83
2023-12-12T20:43:17.684Z,21.93
2023-12-12T20:45:46.909Z,24.63
2023-12-12T20:48:16.729Z,20.50
2023-12-12T20:50:49.301Z,22.20
2023-12-12T20:53:19.486Z,19.45
2023-12-12T20:55:48.057Z,22.58
2023-12-12T20:58:16.947Z,23.75
2023-12-12T21:00:45.900Z,20.63
2023-12-12T21:03:14.664Z,25.97
2023-12-12T21:05:43.245Z,23.80
2023-12-12T21:08:12.190Z,22.85
2023-12-12T21:10:42.334Z,23.00
2023-12-12T21:13:12.886Z,23.08
2023-12-12T21:15:42.371Z,24.10
2023-12-12T21:18:11.000Z,21.08
2023-12-12T21:20:39.561Z,25.75
2023-12-12T21:23:09.500Z,23.20
2023-12-12T21:25:39.036Z,25.08
2023-12-12T21:28:09.349Z,26.05
2023-12-12T21:30:37.887Z,24.27
2023-12-12T21:33:06.667Z,25.88
2023-12-12T21:35:35.238Z,25.60
2023-12-12T21:38:04.518Z,24.75
2023-12-12T21:40:33.115Z,22.50
2023-12-12T21:43:01.832Z,24.00
2023-12-12T21:45:31.734Z,24.33
2023-12-12T21:48:02.449Z,22.23
2023-12-12T21:50:31.296Z,27.63
2023-12-12T21:53:00.212Z,24.00
2023-12-12T21:55:28.957Z,23.08
2023-12-12T21:57:57.461Z,23.80
2023-12-12T22:00:25.993Z,21.63
2023-12-12T22:02:55.908Z,25.67
2023-12-12T22:05:24.406Z,19.58
2023-12-12T22:07:52.986Z,22.47
2023-12-12T22:10:21.584Z,21.43
2023-12-12T22:12:50.057Z,18.60
2023-12-12T22:15:18.494Z,23.60
2023-12-12T22:17:47.051Z,22.02
2023-12-12T22:20:17.241Z,24.10
2023-12-12T22:22:46.500Z,22.17
2023-12-12T22:25:15.934Z,20.07
2023-12-12T22:27:44.415Z,21.27
2023-12-12T22:30:13.968Z,18.50
2023-12-12T22:32:42.622Z,19.60
2023-12-12T22:35:13.028Z,19.60
2023-12-12T22:37:43.047Z,20.33
2023-12-12T22:40:12.676Z,20.47
2023-12-12T22:42:41.174Z,26.37
2023-12-12T22:45:10.892Z,25.77
2023-12-12T22:47:39.378Z,24.50
2023-12-12T22:50:09.154Z,24.27
2023-12-12T22:52:37.691Z,25.92
2023-12-12T22:55:08.642Z,24.03
2023-12-12T22:57:37.103Z,26.83
2023-12-12T23:00:25.615Z,27.10
2023-12-12T23:02:53.976Z,26.13
2023-12-12T23:05:24.537Z,24.10
2023-12-12T23:07:53.319Z,25.60
2023-12-12T23:10:23.404Z,24.73
2023-12-12T23:12:51.914Z,26.73
2023-12-12T23:15:20.931Z,27.23
2023-12-12T23:17:49.581Z,25.43
2023-12-12T23:20:18.328Z,30.95
2023-12-12T23:22:46.875Z,26.67
2023-12-12T23:25:15.525Z,25.45
2023-12-12T23:27:45.380Z,26.60
2023-12-12T23:30:14.468Z,28.25
2023-12-12T23:32:43.324Z,31.33
2023-12-12T23:35:11.866Z,28.43
2023-12-12T23:37:40.321Z,26.57
2023-12-12T23:40:11.256Z,28.90
2023-12-12T23:42:39.769Z,25.27
2023-12-12T23:45:11.617Z,25.90
2023-12-12T23:47:41.126Z,27.07
2023-12-12T23:50:10.251Z,27.00
2023-12-12T23:52:38.779Z,31.58
2023-12-12T23:55:09.244Z,29.08
2023-12-12T23:57:37.754Z,32.13
